sensor_id;sensor_type;location;lat;lon;timestamp;P1;durP1;ratioP1;P2;durP2;ratioP2
56927;SDS011;60850;52.502;13.426;2023-06-10T00:00:28;8.68;;;3.95;;
56927;SDS011;60850;52.502;13.426;2023-06-10T00:03:18;6.75;;;3.28;;
56927;SDS011;60850;52.502;13.426;2023-06-10T00:05:45;11.85;;;3.78;;
56927;SDS011;60850;52.502;13.426;2023-06-10T00:08:12;12.23;;;4.10;;
56927;SDS011;60850;52.502;13.426;2023-06-10T00:10:44;12.75;;;4.22;;
56927;SDS011;60850;52.502;13.426;2023-06-10T00:13:12;11.07;;;3.95;;
56927;SDS011;60850;52.502;13.426;2023-06-10T00:15:39;7.35;;;3.78;;
56927;SDS011;60850;52.502;13.426;2023-06-10T00:18:06;9.93;;;3.92;;
56927;SDS011;60850;52.502;13.426;2023-06-10T00:20:36;10.77;;;3.75;;
56927;SDS011;60850;52.502;13.426;2023-06-10T00:23:04;8.40;;;4.20;;
56927;SDS011;60850;52.502;13.426;2023-06-10T00:25:33;7.82;;;4.10;;
56927;SDS011;60850;52.502;13.426;2023-06-10T00:28:00;8.52;;;3.70;;
56927;SDS011;60850;52.502;13.426;2023-06-10T00:30:27;7.78;;;3.53;;
56927;SDS011;60850;52.502;13.426;2023-06-10T00:32:54;11.70;;;3.70;;
56927;SDS011;60850;52.502;13.426;2023-06-10T00:35:22;11.48;;;4.25;;
56927;SDS011;60850;52.502;13.426;2023-06-10T00:37:50;7.90;;;3.83;;
56927;SDS011;60850;52.502;13.426;2023-06-10T00:40:17;8.77;;;3.72;;
56927;SDS011;60850;52.502;13.426;2023-06-10T00:42:44;9.18;;;4.22;;
56927;SDS011;60850;52.502;13.426;2023-06-10T00:45:11;11.02;;;4.32;;
56927;SDS011;60850;52.502;13.426;2023-06-10T00:47:38;7.40;;;4.07;;
56927;SDS011;60850;52.502;13.426;2023-06-10T00:50:06;12.90;;;4.32;;
56927;SDS011;60850;52.502;13.426;2023-06-10T00:52:34;11.07;;;3.67;;
56927;SDS011;60850;52.502;13.426;2023-06-10T00:55:03;10.65;;;4.32;;
56927;SDS011;60850;52.502;13.426;2023-06-10T00:57:31;7.95;;;3.67;;
56927;SDS011;60850;52.502;13.426;2023-06-10T00:59:58;10.00;;;4.07;;
56927;SDS011;60850;52.502;13.426;2023-06-10T01:02:25;7.85;;;3.78;;
56927;SDS011;60850;52.502;13.426;2023-06-10T01:04:52;12.35;;;4.07;;
56927;SDS011;60850;52.502;13.426;2023-06-10T01:07:21;10.45;;;3.75;;
56927;SDS011;60850;52.502;13.426;2023-06-10T01:09:54;14.80;;;4.45;;
56927;SDS011;60850;52.502;13.426;2023-06-10T01:12:29;8.95;;;4.22;;
56927;SDS011;60850;52.502;13.426;2023-06-10T01:15:00;9.68;;;3.70;;
56927;SDS011;60850;52.502;13.426;2023-06-10T01:17:29;7.00;;;3.72;;
56927;SDS011;60850;52.502;13.426;2023-06-10T01:19:57;10.43;;;4.22;;
56927;SDS011;60850;52.502;13.426;2023-06-10T01:22:26;9.75;;;3.92;;
56927;SDS011;60850;52.502;13.426;2023-06-10T01:24:57;11.02;;;4.05;;
56927;SDS011;60850;52.502;13.426;2023-06-10T01:27:26;8.70;;;3.85;;
56927;SDS011;60850;52.502;13.426;2023-06-10T01:29:58;8.25;;;3.75;;
56927;SDS011;60850;52.502;13.426;2023-06-10T01:32:32;9.60;;;3.92;;
56927;SDS011;60850;52.502;13.426;2023-06-10T01:35:03;11.80;;;3.67;;
56927;SDS011;60850;52.502;13.426;2023-06-10T01:37:35;10.30;;;4.53;;
56927;SDS011;60850;52.502;13.426;2023-06-10T01:40:05;7.93;;;3.67;;
56927;SDS011;60850;52.502;13.426;2023-06-10T01:42:33;11.05;;;3.60;;
56927;SDS011;60850;52.502;13.426;2023-06-10T01:45:01;10.60;;;4.15;;
56927;SDS011;60850;52.502;13.426;2023-06-10T01:47:28;11.20;;;3.78;;
56927;SDS011;60850;52.502;13.426;2023-06-10T01:49:55;7.25;;;3.88;;
56927;SDS011;60850;52.502;13.426;2023-06-10T01:52:22;13.00;;;4.15;;
56927;SDS011;60850;52.502;13.426;2023-06-10T01:54:50;12.02;;;4.63;;
56927;SDS011;60850;52.502;13.426;2023-06-10T01:57:18;11.02;;;4.18;;
56927;SDS011;60850;52.502;13.426;2023-06-10T01:59:44;7.00;;;3.70;;
56927;SDS011;60850;52.502;13.426;2023-06-10T02:02:12;9.15;;;4.15;;
56927;SDS011;60850;52.502;13.426;2023-06-10T02:04:38;7.30;;;3.85;;
56927;SDS011;60850;52.502;13.426;2023-06-10T02:07:06;9.43;;;3.83;;
56927;SDS011;60850;52.502;13.426;2023-06-10T02:09:32;10.40;;;4.15;;
56927;SDS011;60850;52.502;13.426;2023-06-10T02:12:03;8.77;;;3.80;;
56927;SDS011;60850;52.502;13.426;2023-06-10T02:14:32;8.40;;;3.80;;
56927;SDS011;60850;52.502;13.426;2023-06-10T02:16:59;11.52;;;4.93;;
56927;SDS011;60850;52.502;13.426;2023-06-10T02:19:26;8.73;;;4.25;;
56927;SDS011;60850;52.502;13.426;2023-06-10T02:21:53;10.20;;;3.95;;
56927;SDS011;60850;52.502;13.426;2023-06-10T02:24:20;9.82;;;4.30;;
56927;SDS011;60850;52.502;13.426;2023-06-10T02:26:47;9.27;;;3.92;;
56927;SDS011;60850;52.502;13.426;2023-06-10T02:29:17;12.32;;;4.15;;
56927;SDS011;60850;52.502;13.426;2023-06-10T02:31:44;8.70;;;4.00;;
56927;SDS011;60850;52.502;13.426;2023-06-10T02:34:11;10.30;;;4.32;;
56927;SDS011;60850;52.502;13.426;2023-06-10T02:36:39;13.35;;;4.32;;
56927;SDS011;60850;52.502;13.426;2023-06-10T02:39:06;11.50;;;4.70;;
56927;SDS011;60850;52.502;13.426;2023-06-10T02:41:33;10.02;;;4.60;;
56927;SDS011;60850;52.502;13.426;2023-06-10T02:44:00;14.68;;;4.47;;
56927;SDS011;60850;52.502;13.426;2023-06-10T02:46:29;12.95;;;5.13;;
56927;SDS011;60850;52.502;13.426;2023-06-10T02:48:56;8.63;;;3.72;;
56927;SDS011;60850;52.502;13.426;2023-06-10T02:51:23;11.93;;;3.90;;
56927;SDS011;60850;52.502;13.426;2023-06-10T02:53:50;13.57;;;4.18;;
56927;SDS011;60850;52.502;13.426;2023-06-10T02:56:18;9.02;;;3.78;;
56927;SDS011;60850;52.502;13.426;2023-06-10T02:58:47;10.95;;;4.72;;
56927;SDS011;60850;52.502;13.426;2023-06-10T03:01:15;8.55;;;3.97;;
56927;SDS011;60850;52.502;13.426;2023-06-10T03:03:44;11.75;;;4.72;;
56927;SDS011;60850;52.502;13.426;2023-06-10T03:06:12;6.82;;;4.30;;
56927;SDS011;60850;52.502;13.426;2023-06-10T03:08:39;9.15;;;4.20;;
56927;SDS011;60850;52.502;13.426;2023-06-10T03:11:06;9.70;;;4.15;;
56927;SDS011;60850;52.502;13.426;2023-06-10T03:13:33;11.15;;;4.38;;
56927;SDS011;60850;52.502;13.426;2023-06-10T03:16:00;13.50;;;5.05;;
56927;SDS011;60850;52.502;13.426;2023-06-10T03:18:28;9.80;;;4.32;;
56927;SDS011;60850;52.502;13.426;2023-06-10T03:20:57;17.40;;;5.70;;
56927;SDS011;60850;52.502;13.426;2023-06-10T03:23:24;12.23;;;4.57;;
56927;SDS011;60850;52.502;13.426;2023-06-10T03:25:52;10.85;;;4.88;;
56927;SDS011;60850;52.502;13.426;2023-06-10T03:28:20;9.38;;;3.90;;
56927;SDS011;60850;52.502;13.426;2023-06-10T03:30:47;8.45;;;4.43;;
56927;SDS011;60850;52.502;13.426;2023-06-10T03:33:14;12.55;;;5.05;;
56927;SDS011;60850;52.502;13.426;2023-06-10T03:35:42;11.10;;;3.95;;
56927;SDS011;60850;52.502;13.426;2023-06-10T03:38:10;10.05;;;4.57;;
56927;SDS011;60850;52.502;13.426;2023-06-10T03:40:37;12.40;;;4.70;;
56927;SDS011;60850;52.502;13.426;2023-06-10T03:43:04;8.05;;;4.60;;
56927;SDS011;60850;52.502;13.426;2023-06-10T03:45:31;14.35;;;4.78;;
56927;SDS011;60850;52.502;13.426;2023-06-10T03:48:00;10.60;;;4.80;;
56927;SDS011;60850;52.502;13.426;2023-06-10T03:50:29;11.77;;;4.47;;
56927;SDS011;60850;52.502;13.426;2023-06-10T03:52:57;14.40;;;4.28;;
56927;SDS011;60850;52.502;13.426;2023-06-10T03:55:26;9.07;;;4.47;;
56927;SDS011;60850;52.502;13.426;2023-06-10T03:57:53;9.93;;;4.40;;
56927;SDS011;60850;52.502;13.426;2023-06-10T04:00:20;9.90;;;4.45;;
56927;SDS011;60850;52.502;13.426;2023-06-10T04:02:47;10.73;;;5.35;;
56927;SDS011;60850;52.502;13.426;2023-06-10T04:05:17;10.10;;;4.55;;
56927;SDS011;60850;52.502;13.426;2023-06-10T04:07:47;9.65;;;4.72;;
56927;SDS011;60850;52.502;13.426;2023-06-10T04:10:15;9.63;;;4.30;;
56927;SDS011;60850;52.502;13.426;2023-06-10T04:12:43;9.65;;;4.90;;
56927;SDS011;60850;52.502;13.426;2023-06-10T04:15:10;11.75;;;4.65;;
56927;SDS011;60850;52.502;13.426;2023-06-10T04:17:38;10.60;;;4.43;;
56927;SDS011;60850;52.502;13.426;2023-06-10T04:20:06;14.65;;;5.43;;
56927;SDS011;60850;52.502;13.426;2023-06-10T04:22:35;10.20;;;4.75;;
56927;SDS011;60850;52.502;13.426;2023-06-10T04:25:02;15.15;;;4.93;;
56927;SDS011;60850;52.502;13.426;2023-06-10T04:27:29;9.00;;;4.90;;
56927;SDS011;60850;52.502;13.426;2023-06-10T04:29:58;11.23;;;5.00;;
56927;SDS011;60850;52.502;13.426;2023-06-10T04:32:25;8.02;;;4.60;;
56927;SDS011;60850;52.502;13.426;2023-06-10T04:34:52;15.93;;;5.70;;
56927;SDS011;60850;52.502;13.426;2023-06-10T04:37:19;11.43;;;5.22;;
56927;SDS011;60850;52.502;13.426;2023-06-10T04:39:46;11.23;;;4.88;;
56927;SDS011;60850;52.502;13.426;2023-06-10T04:42:13;10.68;;;4.85;;
56927;SDS011;60850;52.502;13.426;2023-06-10T04:44:41;12.30;;;5.90;;
56927;SDS011;60850;52.502;13.426;2023-06-10T04:47:09;9.50;;;4.80;;
56927;SDS011;60850;52.502;13.426;2023-06-10T04:49:36;11.30;;;5.10;;
56927;SDS011;60850;52.502;13.426;2023-06-10T04:52:04;9.00;;;5.18;;
56927;SDS011;60850;52.502;13.426;2023-06-10T04:54:31;9.88;;;5.13;;
56927;SDS011;60850;52.502;13.426;2023-06-10T04:56:58;10.38;;;5.00;;
56927;SDS011;60850;52.502;13.426;2023-06-10T04:59:26;12.77;;;4.88;;
56927;SDS011;60850;52.502;13.426;2023-06-10T05:01:52;11.18;;;5.30;;
56927;SDS011;60850;52.502;13.426;2023-06-10T05:04:22;10.35;;;4.90;;
56927;SDS011;60850;52.502;13.426;2023-06-10T05:06:48;10.48;;;5.40;;
56927;SDS011;60850;52.502;13.426;2023-06-10T05:09:16;9.00;;;5.30;;
56927;SDS011;60850;52.502;13.426;2023-06-10T05:11:43;11.25;;;5.15;;
56927;SDS011;60850;52.502;13.426;2023-06-10T05:14:10;9.40;;;4.63;;
56927;SDS011;60850;52.502;13.426;2023-06-10T05:16:37;10.90;;;5.32;;
56927;SDS011;60850;52.502;13.426;2023-06-10T05:19:04;10.75;;;4.88;;
56927;SDS011;60850;52.502;13.426;2023-06-10T05:21:32;9.98;;;5.32;;
56927;SDS011;60850;52.502;13.426;2023-06-10T05:23:59;8.98;;;4.50;;
56927;SDS011;60850;52.502;13.426;2023-06-10T05:26:27;12.50;;;4.93;;
56927;SDS011;60850;52.502;13.426;2023-06-10T05:28:57;10.15;;;5.80;;
56927;SDS011;60850;52.502;13.426;2023-06-10T05:31:24;10.90;;;5.10;;
56927;SDS011;60850;52.502;13.426;2023-06-10T05:33:51;9.70;;;4.97;;
56927;SDS011;60850;52.502;13.426;2023-06-10T05:36:18;12.75;;;5.25;;
56927;SDS011;60850;52.502;13.426;2023-06-10T05:38:47;14.13;;;6.07;;
56927;SDS011;60850;52.502;13.426;2023-06-10T05:41:14;10.18;;;5.82;;
56927;SDS011;60850;52.502;13.426;2023-06-10T05:43:41;12.20;;;4.97;;
56927;SDS011;60850;52.502;13.426;2023-06-10T05:46:08;10.07;;;5.10;;
56927;SDS011;60850;52.502;13.426;2023-06-10T05:48:35;8.98;;;5.30;;
56927;SDS011;60850;52.502;13.426;2023-06-10T05:51:02;9.80;;;4.78;;
56927;SDS011;60850;52.502;13.426;2023-06-10T05:53:29;8.60;;;4.88;;
56927;SDS011;60850;52.502;13.426;2023-06-10T05:55:57;10.23;;;5.32;;
56927;SDS011;60850;52.502;13.426;2023-06-10T05:58:25;11.77;;;5.35;;
56927;SDS011;60850;52.502;13.426;2023-06-10T06:00:51;7.93;;;5.32;;
56927;SDS011;60850;52.502;13.426;2023-06-10T06:03:19;10.40;;;5.25;;
56927;SDS011;60850;52.502;13.426;2023-06-10T06:05:46;10.40;;;5.55;;
56927;SDS011;60850;52.502;13.426;2023-06-10T06:08:13;17.02;;;6.35;;
56927;SDS011;60850;52.502;13.426;2023-06-10T06:10:42;9.07;;;5.30;;
56927;SDS011;60850;52.502;13.426;2023-06-10T06:13:11;12.30;;;5.60;;
56927;SDS011;60850;52.502;13.426;2023-06-10T06:15:38;11.60;;;5.95;;
56927;SDS011;60850;52.502;13.426;2023-06-10T06:18:05;14.95;;;7.45;;
56927;SDS011;60850;52.502;13.426;2023-06-10T06:20:32;9.20;;;5.25;;
56927;SDS011;60850;52.502;13.426;2023-06-10T06:22:59;9.85;;;5.53;;
56927;SDS011;60850;52.502;13.426;2023-06-10T06:25:26;8.80;;;5.00;;
56927;SDS011;60850;52.502;13.426;2023-06-10T06:27:54;9.23;;;5.32;;
56927;SDS011;60850;52.502;13.426;2023-06-10T06:30:22;9.57;;;5.72;;
56927;SDS011;60850;52.502;13.426;2023-06-10T06:32:49;11.25;;;5.32;;
56927;SDS011;60850;52.502;13.426;2023-06-10T06:35:17;9.30;;;5.47;;
56927;SDS011;60850;52.502;13.426;2023-06-10T06:37:44;10.52;;;5.78;;
56927;SDS011;60850;52.502;13.426;2023-06-10T06:40:11;9.10;;;5.00;;
56927;SDS011;60850;52.502;13.426;2023-06-10T06:42:39;8.27;;;5.60;;
56927;SDS011;60850;52.502;13.426;2023-06-10T06:45:06;9.07;;;5.65;;
56927;SDS011;60850;52.502;13.426;2023-06-10T06:47:35;12.05;;;5.53;;
56927;SDS011;60850;52.502;13.426;2023-06-10T06:50:02;9.20;;;5.32;;
56927;SDS011;60850;52.502;13.426;2023-06-10T06:52:30;7.35;;;5.30;;
56927;SDS011;60850;52.502;13.426;2023-06-10T06:54:57;8.30;;;5.50;;
56927;SDS011;60850;52.502;13.426;2023-06-10T06:57:24;10.68;;;5.70;;
56927;SDS011;60850;52.502;13.426;2023-06-10T06:59:51;7.65;;;5.53;;
56927;SDS011;60850;52.502;13.426;2023-06-10T07:02:18;10.68;;;5.68;;
56927;SDS011;60850;52.502;13.426;2023-06-10T07:04:47;13.63;;;6.15;;
56927;SDS011;60850;52.502;13.426;2023-06-10T07:07:15;20.25;;;7.93;;
56927;SDS011;60850;52.502;13.426;2023-06-10T07:09:42;9.80;;;6.10;;
56927;SDS011;60850;52.502;13.426;2023-06-10T07:12:09;8.77;;;5.35;;
56927;SDS011;60850;52.502;13.426;2023-06-10T07:14:36;13.27;;;6.55;;
56927;SDS011;60850;52.502;13.426;2023-06-10T07:17:03;11.30;;;6.13;;
56927;SDS011;60850;52.502;13.426;2023-06-10T07:19:30;8.60;;;6.55;;
56927;SDS011;60850;52.502;13.426;2023-06-10T07:21:59;8.40;;;5.60;;
56927;SDS011;60850;52.502;13.426;2023-06-10T07:24:26;7.18;;;5.43;;
56927;SDS011;60850;52.502;13.426;2023-06-10T07:26:53;13.68;;;5.80;;
56927;SDS011;60850;52.502;13.426;2023-06-10T07:29:24;11.15;;;5.28;;
56927;SDS011;60850;52.502;13.426;2023-06-10T07:31:51;9.77;;;5.70;;
56927;SDS011;60850;52.502;13.426;2023-06-10T07:34:18;10.93;;;5.95;;
56927;SDS011;60850;52.502;13.426;2023-06-10T07:36:45;9.15;;;5.95;;
56927;SDS011;60850;52.502;13.426;2023-06-10T07:39:14;10.32;;;5.40;;
56927;SDS011;60850;52.502;13.426;2023-06-10T07:41:41;9.00;;;5.88;;
56927;SDS011;60850;52.502;13.426;2023-06-10T07:44:09;7.75;;;5.95;;
56927;SDS011;60850;52.502;13.426;2023-06-10T07:46:36;10.07;;;5.47;;
56927;SDS011;60850;52.502;13.426;2023-06-10T07:49:03;9.18;;;5.97;;
56927;SDS011;60850;52.502;13.426;2023-06-10T07:51:30;8.85;;;6.13;;
56927;SDS011;60850;52.502;13.426;2023-06-10T07:53:57;11.27;;;6.13;;
56927;SDS011;60850;52.502;13.426;2023-06-10T07:56:25;8.07;;;6.10;;
56927;SDS011;60850;52.502;13.426;2023-06-10T07:58:52;8.57;;;6.18;;
56927;SDS011;60850;52.502;13.426;2023-06-10T08:01:20;9.98;;;5.93;;
56927;SDS011;60850;52.502;13.426;2023-06-10T08:03:46;9.40;;;5.70;;
56927;SDS011;60850;52.502;13.426;2023-06-10T08:06:14;12.75;;;5.80;;
56927;SDS011;60850;52.502;13.426;2023-06-10T08:08:42;9.48;;;6.15;;
56927;SDS011;60850;52.502;13.426;2023-06-10T08:11:10;7.20;;;5.82;;
56927;SDS011;60850;52.502;13.426;2023-06-10T08:13:38;9.88;;;5.25;;
56927;SDS011;60850;52.502;13.426;2023-06-10T08:16:06;10.75;;;5.95;;
56927;SDS011;60850;52.502;13.426;2023-06-10T08:18:32;12.40;;;5.90;;
56927;SDS011;60850;52.502;13.426;2023-06-10T08:21:00;9.07;;;5.70;;
56927;SDS011;60850;52.502;13.426;2023-06-10T08:23:27;9.65;;;5.60;;
56927;SDS011;60850;52.502;13.426;2023-06-10T08:25:54;9.02;;;5.82;;
56927;SDS011;60850;52.502;13.426;2023-06-10T08:28:21;7.78;;;6.10;;
56927;SDS011;60850;52.502;13.426;2023-06-10T08:30:49;11.52;;;6.15;;
56927;SDS011;60850;52.502;13.426;2023-06-10T08:33:16;16.13;;;6.15;;
56927;SDS011;60850;52.502;13.426;2023-06-10T08:35:43;11.27;;;6.40;;
56927;SDS011;60850;52.502;13.426;2023-06-10T08:38:10;10.00;;;5.95;;
56927;SDS011;60850;52.502;13.426;2023-06-10T08:40:37;8.18;;;6.28;;
56927;SDS011;60850;52.502;13.426;2023-06-10T08:43:05;12.38;;;5.93;;
56927;SDS011;60850;52.502;13.426;2023-06-10T08:45:34;10.13;;;6.75;;
56927;SDS011;60850;52.502;13.426;2023-06-10T08:48:03;7.22;;;5.60;;
56927;SDS011;60850;52.502;13.426;2023-06-10T08:50:33;10.45;;;6.45;;
56927;SDS011;60850;52.502;13.426;2023-06-10T08:53:04;11.18;;;6.55;;
56927;SDS011;60850;52.502;13.426;2023-06-10T08:55:35;8.15;;;6.05;;
56927;SDS011;60850;52.502;13.426;2023-06-10T08:58:04;9.95;;;6.80;;
56927;SDS011;60850;52.502;13.426;2023-06-10T09:00:31;11.10;;;6.22;;
56927;SDS011;60850;52.502;13.426;2023-06-10T09:02:58;9.43;;;6.47;;
56927;SDS011;60850;52.502;13.426;2023-06-10T09:05:30;12.68;;;6.28;;
56927;SDS011;60850;52.502;13.426;2023-06-10T09:08:00;12.30;;;6.07;;
56927;SDS011;60850;52.502;13.426;2023-06-10T09:10:27;9.48;;;6.03;;
56927;SDS011;60850;52.502;13.426;2023-06-10T09:12:54;9.88;;;6.50;;
56927;SDS011;60850;52.502;13.426;2023-06-10T09:15:22;9.90;;;6.45;;
56927;SDS011;60850;52.502;13.426;2023-06-10T09:17:49;9.95;;;6.47;;
56927;SDS011;60850;52.502;13.426;2023-06-10T09:20:19;13.38;;;6.68;;
56927;SDS011;60850;52.502;13.426;2023-06-10T09:22:47;8.80;;;5.90;;
56927;SDS011;60850;52.502;13.426;2023-06-10T09:25:15;9.15;;;6.10;;
56927;SDS011;60850;52.502;13.426;2023-06-10T09:27:46;8.68;;;5.82;;
56927;SDS011;60850;52.502;13.426;2023-06-10T09:30:26;8.27;;;6.05;;
56927;SDS011;60850;52.502;13.426;2023-06-10T09:32:54;8.75;;;5.35;;
56927;SDS011;60850;52.502;13.426;2023-06-10T09:35:22;10.77;;;6.20;;
56927;SDS011;60850;52.502;13.426;2023-06-10T09:37:51;9.68;;;5.30;;
56927;SDS011;60850;52.502;13.426;2023-06-10T09:40:19;9.27;;;5.85;;
56927;SDS011;60850;52.502;13.426;2023-06-10T09:42:46;9.18;;;5.43;;
56927;SDS011;60850;52.502;13.426;2023-06-10T09:45:21;10.23;;;5.90;;
56927;SDS011;60850;52.502;13.426;2023-06-10T09:47:51;10.30;;;5.38;;
56927;SDS011;60850;52.502;13.426;2023-06-10T09:50:19;10.90;;;5.20;;
56927;SDS011;60850;52.502;13.426;2023-06-10T09:52:46;11.52;;;6.22;;
56927;SDS011;60850;52.502;13.426;2023-06-10T09:55:16;16.58;;;7.57;;
56927;SDS011;60850;52.502;13.426;2023-06-10T09:57:43;10.23;;;6.10;;
56927;SDS011;60850;52.502;13.426;2023-06-10T10:00:14;10.80;;;5.80;;
56927;SDS011;60850;52.502;13.426;2023-06-10T10:02:45;9.18;;;6.35;;
56927;SDS011;60850;52.502;13.426;2023-06-10T10:05:14;9.75;;;6.20;;
56927;SDS011;60850;52.502;13.426;2023-06-10T10:07:41;8.15;;;6.13;;
56927;SDS011;60850;52.502;13.426;2023-06-10T10:10:09;12.00;;;6.30;;
56927;SDS011;60850;52.502;13.426;2023-06-10T10:12:39;9.18;;;6.68;;
56927;SDS011;60850;52.502;13.426;2023-06-10T10:15:07;10.07;;;6.20;;
56927;SDS011;60850;52.502;13.426;2023-06-10T10:17:36;10.50;;;6.07;;
56927;SDS011;60850;52.502;13.426;2023-06-10T10:20:06;10.35;;;6.28;;
56927;SDS011;60850;52.502;13.426;2023-06-10T10:22:35;10.40;;;6.15;;
56927;SDS011;60850;52.502;13.426;2023-06-10T10:25:10;8.25;;;5.60;;
56927;SDS011;60850;52.502;13.426;2023-06-10T10:27:43;8.88;;;5.90;;
56927;SDS011;60850;52.502;13.426;2023-06-10T10:30:14;6.50;;;5.60;;
56927;SDS011;60850;52.502;13.426;2023-06-10T10:32:50;6.72;;;5.15;;
56927;SDS011;60850;52.502;13.426;2023-06-10T10:35:22;6.38;;;5.03;;
56927;SDS011;60850;52.502;13.426;2023-06-10T10:37:54;8.35;;;4.95;;
56927;SDS011;60850;52.502;13.426;2023-06-10T10:40:22;5.10;;;3.70;;
56927;SDS011;60850;52.502;13.426;2023-06-10T10:42:51;5.43;;;4.28;;
56927;SDS011;60850;52.502;13.426;2023-06-10T10:45:21;5.63;;;4.07;;
56927;SDS011;60850;52.502;13.426;2023-06-10T10:47:52;9.38;;;3.95;;
56927;SDS011;60850;52.502;13.426;2023-06-10T10:50:21;8.75;;;4.68;;
56927;SDS011;60850;52.502;13.426;2023-06-10T10:52:52;6.20;;;4.40;;
56927;SDS011;60850;52.502;13.426;2023-06-10T10:55:21;4.40;;;3.72;;
56927;SDS011;60850;52.502;13.426;2023-06-10T10:57:57;4.75;;;3.88;;
56927;SDS011;60850;52.502;13.426;2023-06-10T11:00:27;7.15;;;4.00;;
56927;SDS011;60850;52.502;13.426;2023-06-10T11:03:00;6.15;;;4.22;;
56927;SDS011;60850;52.502;13.426;2023-06-10T11:05:37;4.30;;;3.90;;
56927;SDS011;60850;52.502;13.426;2023-06-10T11:10:35;9.32;;;4.13;;
56927;SDS011;60850;52.502;13.426;2023-06-10T11:13:08;4.38;;;3.65;;
56927;SDS011;60850;52.502;13.426;2023-06-10T11:15:39;4.53;;;3.35;;
56927;SDS011;60850;52.502;13.426;2023-06-10T11:18:11;4.90;;;4.05;;
56927;SDS011;60850;52.502;13.426;2023-06-10T11:20:53;4.53;;;3.63;;
56927;SDS011;60850;52.502;13.426;2023-06-10T11:26:11;4.32;;;3.63;;
56927;SDS011;60850;52.502;13.426;2023-06-10T11:28:40;5.35;;;4.07;;
56927;SDS011;60850;52.502;13.426;2023-06-10T11:31:08;5.75;;;4.22;;
56927;SDS011;60850;52.502;13.426;2023-06-10T11:33:44;4.88;;;4.20;;
56927;SDS011;60850;52.502;13.426;2023-06-10T11:36:13;5.35;;;4.05;;
56927;SDS011;60850;52.502;13.426;2023-06-10T11:38:40;5.97;;;4.40;;
56927;SDS011;60850;52.502;13.426;2023-06-10T11:41:07;8.57;;;4.50;;
56927;SDS011;60850;52.502;13.426;2023-06-10T11:43:34;5.60;;;5.00;;
56927;SDS011;60850;52.502;13.426;2023-06-10T11:46:05;5.28;;;4.53;;
56927;SDS011;60850;52.502;13.426;2023-06-10T11:48:33;11.25;;;4.75;;
56927;SDS011;60850;52.502;13.426;2023-06-10T11:51:00;10.00;;;5.47;;
56927;SDS011;60850;52.502;13.426;2023-06-10T11:53:27;7.18;;;4.47;;
56927;SDS011;60850;52.502;13.426;2023-06-10T11:55:54;4.28;;;3.88;;
56927;SDS011;60850;52.502;13.426;2023-06-10T11:58:22;7.88;;;4.65;;
56927;SDS011;60850;52.502;13.426;2023-06-10T12:00:49;6.40;;;4.45;;
56927;SDS011;60850;52.502;13.426;2023-06-10T12:03:20;6.47;;;5.50;;
56927;SDS011;60850;52.502;13.426;2023-06-10T12:05:55;7.63;;;5.00;;
56927;SDS011;60850;52.502;13.426;2023-06-10T12:08:22;5.72;;;5.22;;
56927;SDS011;60850;52.502;13.426;2023-06-10T12:10:50;8.05;;;5.20;;
56927;SDS011;60850;52.502;13.426;2023-06-10T12:13:17;8.55;;;4.60;;
56927;SDS011;60850;52.502;13.426;2023-06-10T12:15:44;8.50;;;4.68;;
56927;SDS011;60850;52.502;13.426;2023-06-10T12:18:15;6.28;;;5.03;;
56927;SDS011;60850;52.502;13.426;2023-06-10T12:20:45;10.68;;;5.38;;
56927;SDS011;60850;52.502;13.426;2023-06-10T12:23:12;7.10;;;4.78;;
56927;SDS011;60850;52.502;13.426;2023-06-10T12:25:43;8.18;;;5.32;;
56927;SDS011;60850;52.502;13.426;2023-06-10T12:28:17;9.20;;;5.15;;
56927;SDS011;60850;52.502;13.426;2023-06-10T12:30:47;5.80;;;5.28;;
56927;SDS011;60850;52.502;13.426;2023-06-10T12:33:17;9.18;;;5.80;;
56927;SDS011;60850;52.502;13.426;2023-06-10T12:35:49;7.88;;;5.65;;
56927;SDS011;60850;52.502;13.426;2023-06-10T12:38:21;7.55;;;6.28;;
56927;SDS011;60850;52.502;13.426;2023-06-10T12:40:50;7.28;;;5.95;;
56927;SDS011;60850;52.502;13.426;2023-06-10T12:43:20;9.02;;;6.22;;
56927;SDS011;60850;52.502;13.426;2023-06-10T12:45:48;8.98;;;6.30;;
56927;SDS011;60850;52.502;13.426;2023-06-10T12:48:19;8.05;;;6.05;;
56927;SDS011;60850;52.502;13.426;2023-06-10T12:50:50;6.57;;;5.90;;
56927;SDS011;60850;52.502;13.426;2023-06-10T12:53:18;9.68;;;6.32;;
56927;SDS011;60850;52.502;13.426;2023-06-10T12:55:46;7.55;;;6.85;;
56927;SDS011;60850;52.502;13.426;2023-06-10T12:58:13;9.88;;;6.45;;
56927;SDS011;60850;52.502;13.426;2023-06-10T13:00:40;9.43;;;7.90;;
56927;SDS011;60850;52.502;13.426;2023-06-10T13:03:08;8.20;;;7.30;;
56927;SDS011;60850;52.502;13.426;2023-06-10T13:05:36;9.65;;;6.72;;
56927;SDS011;60850;52.502;13.426;2023-06-10T13:08:05;9.85;;;6.93;;
56927;SDS011;60850;52.502;13.426;2023-06-10T13:10:32;7.95;;;6.85;;
56927;SDS011;60850;52.502;13.426;2023-06-10T13:13:00;11.13;;;7.55;;
56927;SDS011;60850;52.502;13.426;2023-06-10T13:15:28;9.40;;;7.22;;
56927;SDS011;60850;52.502;13.426;2023-06-10T13:17:55;9.07;;;7.28;;
56927;SDS011;60850;52.502;13.426;2023-06-10T13:20:22;9.70;;;7.40;;
56927;SDS011;60850;52.502;13.426;2023-06-10T13:22:49;8.50;;;7.40;;
56927;SDS011;60850;52.502;13.426;2023-06-10T13:25:17;7.90;;;6.93;;
56927;SDS011;60850;52.502;13.426;2023-06-10T13:27:44;9.43;;;7.63;;
56927;SDS011;60850;52.502;13.426;2023-06-10T13:30:11;7.88;;;7.05;;
56927;SDS011;60850;52.502;13.426;2023-06-10T13:32:38;8.50;;;7.60;;
56927;SDS011;60850;52.502;13.426;2023-06-10T13:35:06;9.93;;;6.75;;
56927;SDS011;60850;52.502;13.426;2023-06-10T13:37:33;7.68;;;6.90;;
56927;SDS011;60850;52.502;13.426;2023-06-10T13:40:00;9.23;;;6.78;;
56927;SDS011;60850;52.502;13.426;2023-06-10T13:42:29;8.70;;;6.75;;
56927;SDS011;60850;52.502;13.426;2023-06-10T13:44:56;7.55;;;6.70;;
56927;SDS011;60850;52.502;13.426;2023-06-10T13:47:23;9.68;;;6.90;;
56927;SDS011;60850;52.502;13.426;2023-06-10T13:49:51;10.18;;;7.40;;
56927;SDS011;60850;52.502;13.426;2023-06-10T13:52:17;7.43;;;6.65;;
56927;SDS011;60850;52.502;13.426;2023-06-10T13:54:45;11.07;;;6.78;;
56927;SDS011;60850;52.502;13.426;2023-06-10T13:57:11;7.45;;;6.55;;
56927;SDS011;60850;52.502;13.426;2023-06-10T13:59:40;10.75;;;6.90;;
56927;SDS011;60850;52.502;13.426;2023-06-10T14:02:07;8.43;;;6.13;;
56927;SDS011;60850;52.502;13.426;2023-06-10T14:04:34;8.52;;;6.78;;
56927;SDS011;60850;52.502;13.426;2023-06-10T14:07:01;8.23;;;6.70;;
56927;SDS011;60850;52.502;13.426;2023-06-10T14:09:28;8.38;;;6.60;;
56927;SDS011;60850;52.502;13.426;2023-06-10T14:11:55;8.55;;;6.95;;
56927;SDS011;60850;52.502;13.426;2023-06-10T14:14:22;7.82;;;6.40;;
56927;SDS011;60850;52.502;13.426;2023-06-10T14:16:51;6.57;;;5.97;;
56927;SDS011;60850;52.502;13.426;2023-06-10T14:19:18;7.07;;;6.38;;
56927;SDS011;60850;52.502;13.426;2023-06-10T14:21:45;10.60;;;6.10;;
56927;SDS011;60850;52.502;13.426;2023-06-10T14:24:12;8.32;;;6.05;;
56927;SDS011;60850;52.502;13.426;2023-06-10T14:26:39;6.70;;;6.00;;
56927;SDS011;60850;52.502;13.426;2023-06-10T14:29:06;10.93;;;6.35;;
56927;SDS011;60850;52.502;13.426;2023-06-10T14:31:34;7.55;;;5.45;;
56927;SDS011;60850;52.502;13.426;2023-06-10T14:34:02;8.15;;;6.00;;
56927;SDS011;60850;52.502;13.426;2023-06-10T14:36:31;6.65;;;5.55;;
56927;SDS011;60850;52.502;13.426;2023-06-10T14:38:58;8.38;;;6.18;;